Time;durP1;ratioP1;P1;durP2;ratioP2;P2;SDS_P1;SDS_P2;PMS_P1;PMS_P2;Temp;Humidity;BMP_temperature;BMP_pressure;BME280_temperature;BME280_humidity;BME280_pressure;Samples;Min_cycle;Max_cycle;Signal;HPM_P1;HPM_P2
2022/10/01 00:00:50;;;;;;;5.05;3.13;;;;;;;2.22;100.00;92786.31;2130307;27;20031;-75
2022/10/01 00:01:50;;;;;;;4.78;3.33;;;;;;;2.26;100.00;92791.63;2135394;27;20026;-76
2022/10/01 00:02:54;;;;;;;4.47;2.80;;;;;;;2.34;100.00;92797.69;2135557;27;20666;-76
2022/10/01 00:03:56;;;;;;;3.67;3.22;;;;;;;2.35;100.00;92791.28;2135938;27;20475;-75
2022/10/01 00:04:57;;;;;;;3.53;3.22;;;;;;;2.33;100.00;92789.00;2135780;27;20457;-74
2022/10/01 00:06:09;;;;;;;3.45;2.90;;;;;;;2.38;100.00;92798.44;2134679;27;20030;-74
2022/10/01 00:07:13;;;;;;;4.00;3.25;;;;;;;2.40;100.00;92804.84;2126560;27;20023;-74
2022/10/01 00:08:15;;;;;;;6.93;3.30;;;;;;;2.38;100.00;92809.75;2126609;27;20487;-76
2022/10/01 00:09:16;;;;;;;9.15;3.30;;;;;;;2.38;100.00;92814.28;2135549;27;20079;-76
2022/10/01 00:10:17;;;;;;;14.30;3.20;;;;;;;2.41;100.00;92813.50;2131354;27;20428;-74
2022/10/01 00:11:24;;;;;;;14.27;4.72;;;;;;;2.46;100.00;92810.53;2128522;27;20071;-75
2022/10/01 00:12:25;;;;;;;16.98;3.85;;;;;;;2.40;100.00;92812.75;2135893;27;20038;-75
2022/10/01 00:13:29;;;;;;;6.13;3.45;;;;;;;2.39;100.00;92819.16;2135724;27;20416;-76
2022/10/01 00:14:30;;;;;;;4.38;3.17;;;;;;;2.43;100.00;92813.91;2132155;27;20023;-75
2022/10/01 00:15:31;;;;;;;4.28;3.15;;;;;;;2.44;100.00;92808.25;2132632;27;20052;-75
2022/10/01 00:16:33;;;;;;;3.63;3.33;;;;;;;2.47;100.00;92818.06;2134876;27;20105;-76
2022/10/01 00:17:35;;;;;;;6.03;2.95;;;;;;;2.47;100.00;92812.78;2135827;27;20042;-75
2022/10/01 00:18:37;;;;;;;3.83;2.92;;;;;;;2.43;100.00;92804.13;2135785;27;20387;-75
2022/10/01 00:19:38;;;;;;;4.30;3.38;;;;;;;2.45;100.00;92803.72;2135739;27;20054;-75
2022/10/01 00:20:42;;;;;;;4.38;2.97;;;;;;;2.44;100.00;92805.63;2135182;27;20603;-74
2022/10/01 00:21:43;;;;;;;3.70;2.88;;;;;;;2.48;100.00;92795.84;2127479;27;20077;-75
2022/10/01 00:22:44;;;;;;;3.08;2.80;;;;;;;2.47;100.00;92798.84;2135528;27;20034;-75
2022/10/01 00:23:46;;;;;;;4.15;3.40;;;;;;;2.46;100.00;92800.00;2135667;27;20039;-75
2022/10/01 00:24:48;;;;;;;3.78;3.03;;;;;;;2.46;100.00;92808.66;2117856;27;20023;-75
2022/10/01 00:25:51;;;;;;;3.22;2.78;;;;;;;2.47;100.00;92801.50;2117822;27;20670;-75
2022/10/01 00:26:52;;;;;;;3.85;3.35;;;;;;;2.53;100.00;92795.47;2125556;27;20030;-75
2022/10/01 00:27:52;;;;;;;3.00;2.80;;;;;;;2.58;100.00;92794.34;2117844;27;20840;-75
2022/10/01 00:28:56;;;;;;;2.92;2.72;;;;;;;2.58;100.00;92785.69;2126150;27;20929;-75
2022/10/01 00:29:58;;;;;;;6.03;3.08;;;;;;;2.52;100.00;92786.06;2135595;27;20086;-73
2022/10/01 00:30:59;;;;;;;3.20;2.97;;;;;;;2.60;100.00;92792.13;2135624;27;20026;-73
2022/10/01 00:32:01;;;;;;;3.15;2.85;;;;;;;2.59;100.00;92789.81;2125537;27;20113;-74
2022/10/01 00:33:02;;;;;;;3.20;2.90;;;;;;;2.68;100.00;92785.72;2126771;27;20097;-75
2022/10/01 00:34:03;;;;;;;3.95;2.70;;;;;;;2.70;100.00;92795.91;2135124;27;20022;-74
2022/10/01 00:35:08;;;;;;;3.40;3.10;;;;;;;2.59;100.00;92777.41;2135313;27;20387;-76
2022/10/01 00:36:10;;;;;;;5.63;3.20;;;;;;;2.66;100.00;92776.66;2135149;27;20384;-74
2022/10/01 00:37:11;;;;;;;6.22;3.15;;;;;;;2.70;100.00;92787.97;2131813;27;20114;-75
2022/10/01 00:38:14;;;;;;;7.85;3.25;;;;;;;2.74;100.00;92791.41;2135593;27;20381;-75
2022/10/01 00:39:15;;;;;;;10.23;3.17;;;;;;;2.81;100.00;92780.88;2135521;27;20030;-74
2022/10/01 00:40:20;;;;;;;4.57;3.72;;;;;;;2.76;100.00;92775.94;2135166;27;20026;-74
2022/10/01 00:41:21;;;;;;;3.13;2.78;;;;;;;2.73;100.00;92774.81;2131372;27;20090;-73
2022/10/01 00:42:25;;;;;;;5.13;3.13;;;;;;;2.75;100.00;92782.34;2132211;27;20527;-73
2022/10/01 00:43:36;;;;;;;5.35;3.30;;;;;;;2.72;100.00;92768.03;2138498;27;20507;-73
2022/10/01 00:44:37;;;;;;;3.25;2.78;;;;;;;2.80;100.00;92771.41;2126199;27;20055;-73
2022/10/01 00:45:38;;;;;;;3.10;2.80;;;;;;;2.77;100.00;92774.81;2124593;27;20800;-74
2022/10/01 00:46:43;;;;;;;2.63;2.42;;;;;;;2.81;100.00;92783.50;2136125;27;20517;-76
2022/10/01 00:47:50;;;;;;;2.67;2.47;;;;;;;2.72;100.00;92780.44;2131145;27;20035;-73
2022/10/01 00:48:58;;;;;;;6.40;2.53;;;;;;;2.75;100.00;92787.63;2131910;27;20051;-74
2022/10/01 00:50:15;;;;;;;5.97;3.15;;;;;;;2.71;100.00;92790.25;2132574;27;20034;-76
2022/10/01 00:51:16;;;;;;;4.68;2.90;;;;;;;2.73;100.00;92792.53;2134945;27;20074;-74
2022/10/01 00:52:23;;;;;;;2.80;2.60;;;;;;;2.77;100.00;92794.03;2131340;27;20030;-74
2022/10/01 00:53:24;;;;;;;3.03;2.60;;;;;;;2.78;100.00;92790.28;2122077;27;20030;-74
2022/10/01 00:54:31;;;;;;;2.60;2.40;;;;;;;2.71;100.00;92792.13;2129290;27;20117;-74
2022/10/01 00:55:43;;;;;;;2.78;2.47;;;;;;;2.74;100.00;92792.16;2134553;27;20074;-74
2022/10/01 00:56:45;;;;;;;4.75;2.78;;;;;;;2.71;100.00;92787.59;2137389;27;20460;-74
2022/10/01 00:57:46;;;;;;;3.15;2.88;;;;;;;2.72;100.00;92788.34;2134898;27;20041;-74
2022/10/01 00:58:50;;;;;;;2.53;2.33;;;;;;;2.72;100.00;92797.06;2131415;27;20434;-74
2022/10/01 00:59:55;;;;;;;3.65;2.45;;;;;;;2.66;100.00;92792.50;2136065;27;20026;-74
2022/10/01 01:00:56;;;;;;;2.50;2.30;;;;;;;2.63;100.00;92786.06;2126023;27;20027;-73
2022/10/01 01:01:58;;;;;;;2.83;2.60;;;;;;;2.64;100.00;92794.75;2126213;27;20452;-76
2022/10/01 01:02:59;;;;;;;2.78;2.58;;;;;;;2.60;100.00;92797.38;2135355;27;20039;-77
2022/10/01 01:04:00;;;;;;;4.88;2.72;;;;;;;2.61;100.00;92795.50;2131934;27;20114;-73
2022/10/01 01:05:03;;;;;;;6.57;2.38;;;;;;;2.61;100.00;92787.59;2137249;27;20109;-76
2022/10/01 01:06:07;;;;;;;2.85;2.58;;;;;;;2.46;100.00;92792.81;2135211;27;20521;-75
2022/10/01 01:07:08;;;;;;;4.88;2.22;;;;;;;2.36;100.00;92787.50;2138229;27;20033;-74
2022/10/01 01:08:09;;;;;;;3.40;2.70;;;;;;;2.38;100.00;92790.53;2136429;27;20030;-73
2022/10/01 01:09:10;;;;;;;4.43;2.60;;;;;;;2.40;100.00;92783.00;2134782;27;20088;-76
2022/10/01 01:10:17;;;;;;;3.88;2.63;;;;;;;2.43;100.00;92780.38;2135155;27;20103;-74
2022/10/01 01:11:23;;;;;;;4.60;2.30;;;;;;;2.48;100.00;92792.44;2134805;27;20034;-76
2022/10/01 01:12:30;;;;;;;4.10;2.70;;;;;;;2.37;100.00;92800.34;2135252;27;20102;-74
2022/10/01 01:13:47;;;;;;;2.38;2.17;;;;;;;2.44;100.00;92794.31;2135188;27;20071;-76
2022/10/01 01:14:57;;;;;;;2.80;2.60;;;;;;;2.46;100.00;92806.00;2122238;27;20019;-76
2022/10/01 01:16:08;;;;;;;2.45;2.25;;;;;;;2.47;100.00;92810.16;2134543;27;20464;-74
2022/10/01 01:17:18;;;;;;;2.60;2.40;;;;;;;2.38;100.00;92806.38;2134692;27;20066;-76
2022/10/01 01:18:33;;;;;;;2.42;2.22;;;;;;;2.40;100.00;92801.47;2131328;27;20036;-74
2022/10/01 01:20:13;;;;;;;3.33;2.20;;;;;;;2.49;100.00;92799.97;2134321;27;20052;-74
2022/10/01 01:21:21;;;;;;;3.80;2.22;;;;;;;2.52;100.00;92801.13;2138300;27;20034;-73
2022/10/01 01:22:25;;;;;;;2.70;2.38;;;;;;;2.54;100.00;92801.50;2121951;27;20031;-74
2022/10/01 01:23:46;;;;;;;5.05;2.22;;;;;;;2.45;100.00;92801.84;2126459;27;20118;-73
2022/10/01 01:24:48;;;;;;;3.03;2.70;;;;;;;2.57;100.00;92797.38;2138000;27;20037;-73
2022/10/01 01:26:05;;;;;;;4.53;2.13;;;;;;;2.54;100.00;92801.50;2130987;27;20086;-73
2022/10/01 01:27:30;;;;;;;3.28;2.50;;;;;;;2.54;100.00;92796.22;2135123;27;20108;-74
2022/10/01 01:28:38;;;;;;;2.92;2.47;;;;;;;2.63;100.00;92795.88;2132581;27;20017;-74
2022/10/01 01:29:51;;;;;;;3.90;2.33;;;;;;;2.68;100.00;92798.94;2117240;27;20047;-74
2022/10/01 01:30:57;;;;;;;2.35;2.15;;;;;;;2.62;100.00;92794.38;2120568;27;20485;-74
2022/10/01 01:32:06;;;;;;;4.13;2.28;;;;;;;2.62;100.00;92795.13;2135188;27;20029;-73
2022/10/01 01:33:14;;;;;;;2.72;2.50;;;;;;;2.59;100.00;92789.81;2135062;27;20057;-75
2022/10/01 01:34:24;;;;;;;2.50;2.30;;;;;;;2.59;100.00;92787.19;2134515;27;20058;-73
2022/10/01 01:35:33;;;;;;;2.50;2.30;;;;;;;2.55;100.00;92779.28;2126990;27;20104;-73
2022/10/01 01:36:36;;;;;;;3.17;2.63;;;;;;;2.51;100.00;92784.56;2133453;27;20073;-73
2022/10/01 01:37:46;;;;;;;2.40;2.20;;;;;;;2.51;100.00;92776.63;2135265;27;20118;-74
2022/10/01 01:38:53;;;;;;;2.67;2.47;;;;;;;2.42;100.00;92772.84;2139637;27;20022;-73
2022/10/01 01:39:58;;;;;;;2.50;2.30;;;;;;;2.43;100.00;92766.44;2131523;27;20471;-73
2022/10/01 01:41:01;;;;;;;2.50;2.30;;;;;;;2.51;100.00;92760.81;2127730;27;20370;-73
2022/10/01 01:42:08;;;;;;;2.60;2.40;;;;;;;2.52;100.00;92751.00;2133016;27;20054;-74
2022/10/01 01:43:19;;;;;;;2.85;2.65;;;;;;;2.51;100.00;92757.41;2135044;27;20517;-74
2022/10/01 01:44:25;;;;;;;2.65;2.28;;;;;;;2.81;100.00;92754.47;2131012;27;20108;-74
2022/10/01 01:45:29;;;;;;;2.20;2.10;;;;;;;2.73;100.00;92750.31;2131907;27;20030;-74
2022/10/01 01:46:33;;;;;;;2.33;2.13;;;;;;;2.70;100.00;92751.78;2133401;27;20483;-74
2022/10/01 01:47:37;;;;;;;3.35;2.90;;;;;;;2.62;100.00;92745.00;2134758;27;20030;-73
2022/10/01 01:48:40;;;;;;;2.55;2.35;;;;;;;2.50;100.00;92742.69;2125818;27;20481;-75
2022/10/01 01:49:41;;;;;;;3.47;3.17;;;;;;;2.49;100.00;92741.94;2126154;27;20023;-73
2022/10/01 01:50:57;;;;;;;5.82;2.63;;;;;;;2.53;100.00;92741.97;2134528;27;20030;-74
2022/10/01 01:52:14;;;;;;;3.47;2.40;;;;;;;2.63;100.00;92741.22;2132351;27;20520;-73
2022/10/01 01:53:15;;;;;;;2.20;2.00;;;;;;;2.62;100.00;92731.06;2138693;27;20041;-75
2022/10/01 01:54:18;;;;;;;2.03;1.92;;;;;;;2.55;100.00;92733.66;2129257;27;20113;-74
2022/10/01 01:55:23;;;;;;;8.52;2.55;;;;;;;2.51;100.00;92733.69;2105266;28;20023;-75
2022/10/01 01:56:25;;;;;;;8.23;2.10;;;;;;;2.46;100.00;92726.88;2113826;27;20436;-74
2022/10/01 01:57:26;;;;;;;2.85;2.25;;;;;;;2.46;100.00;92728.78;2134936;27;20038;-74
2022/10/01 01:58:28;;;;;;;4.32;2.30;;;;;;;2.50;100.00;92721.59;2134794;27;20050;-74
2022/10/01 01:59:31;;;;;;;2.60;2.33;;;;;;;2.60;100.00;92720.13;2134481;27;20022;-74
2022/10/01 02:00:32;;;;;;;5.47;2.10;;;;;;;2.52;100.00;92725.38;2134621;27;20038;-74
2022/10/01 02:01:41;;;;;;;6.10;2.40;;;;;;;2.44;100.00;92713.31;2125245;27;20042;-74
2022/10/01 02:02:48;;;;;;;3.33;1.90;;;;;;;2.43;100.00;92719.72;2127161;27;20022;-74
2022/10/01 02:03:49;;;;;;;2.20;2.10;;;;;;;2.47;100.00;92717.84;2130126;27;20852;-74
2022/10/01 02:04:55;;;;;;;2.53;2.10;;;;;;;2.46;100.00;92715.59;2134722;27;20029;-74
2022/10/01 02:06:05;;;;;;;2.33;2.13;;;;;;;2.40;100.00;92711.78;2134681;27;20025;-74
2022/10/01 02:07:34;;;;;;;2.63;2.20;;;;;;;2.41;100.00;92719.31;2123062;27;20384;-74
2022/10/01 02:08:50;;;;;;;5.63;2.50;;;;;;;2.46;100.00;92716.34;2128027;27;20026;-74
2022/10/01 02:10:21;;;;;;;2.28;2.10;;;;;;;2.47;100.00;92715.19;2131301;27;20109;-74
2022/10/01 02:11:29;;;;;;;2.63;2.15;;;;;;;2.38;100.00;92719.31;2091039;28;20051;-75
2022/10/01 02:13:07;;;;;;;2.30;2.10;;;;;;;2.53;100.00;92708.41;2132578;27;20046;-73
2022/10/01 02:15:55;;;;;;;;;;;;;;;2.48;100.00;92711.44;2142910;27;20547;-74
2022/10/01 02:17:00;;;;;;;;;;;;;;;2.46;100.00;92712.94;2130941;27;19910;-71
2022/10/01 02:18:32;;;;;;;2.00;1.90;;;;;;;2.42;100.00;92709.53;2137690;27;19914;-74
2022/10/01 02:19:58;;;;;;;2.38;2.10;;;;;;;2.49;100.00;92704.25;2133737;27;20038;-76
2022/10/01 02:21:08;;;;;;;2.13;1.90;;;;;;;2.49;100.00;92706.91;2132973;27;20468;-74
2022/10/01 02:22:21;;;;;;;2.22;1.88;;;;;;;2.61;100.00;92708.44;2134769;27;20086;-73
2022/10/01 02:23:27;;;;;;;9.15;2.50;;;;;;;2.61;100.00;92713.72;2130585;27;20046;-77
2022/10/01 02:24:50;;;;;;;6.85;2.45;;;;;;;2.55;100.00;92704.66;2137612;27;20067;-75
2022/10/01 02:26:00;;;;;;;8.10;2.78;;;;;;;2.52;100.00;92706.16;2130436;27;20033;-75
2022/10/01 02:27:07;;;;;;;14.02;2.63;;;;;;;2.48;100.00;92710.69;2137926;27;20033;-72
2022/10/01 02:28:17;;;;;;;7.70;2.30;;;;;;;2.42;100.00;92710.28;2135505;27;20034;-75
2022/10/01 02:29:21;;;;;;;10.48;2.53;;;;;;;2.41;100.00;92705.38;2129215;27;20042;-75
2022/10/01 02:30:22;;;;;;;6.57;2.20;;;;;;;2.43;100.00;92705.78;2137811;27;20037;-73
2022/10/01 02:31:23;;;;;;;3.83;2.20;;;;;;;2.41;100.00;92708.00;2137874;27;20267;-75
2022/10/01 02:32:27;;;;;;;3.95;2.90;;;;;;;2.48;100.00;92702.75;2136099;27;20031;-73
2022/10/01 02:33:35;;;;;;;2.63;2.17;;;;;;;2.44;100.00;92697.47;2135204;27;20710;-77
2022/10/01 02:34:37;;;;;;;4.93;1.90;;;;;;;2.42;100.00;92704.28;2137928;27;20034;-73
2022/10/01 02:35:42;;;;;;;3.35;2.25;;;;;;;2.29;100.00;92705.75;2137224;27;20372;-73
2022/10/01 02:36:44;;;;;;;4.60;2.30;;;;;;;2.42;100.00;92699.75;2128333;27;20031;-75
2022/10/01 02:37:50;;;;;;;3.55;2.05;;;;;;;2.45;100.00;92704.25;2125658;27;20806;-76
2022/10/01 02:38:54;;;;;;;5.78;2.45;;;;;;;2.46;100.00;92697.88;2130372;27;20033;-73
2022/10/01 02:39:58;;;;;;;6.22;2.13;;;;;;;2.55;100.00;92696.72;2137938;27;20025;-77
2022/10/01 02:41:03;;;;;;;10.82;2.40;;;;;;;2.78;100.00;92699.78;2137509;27;20105;-76
2022/10/01 02:42:08;;;;;;;5.88;2.42;;;;;;;2.80;100.00;92686.97;2137446;27;20026;-74
2022/10/01 02:43:19;;;;;;;5.07;2.50;;;;;;;2.80;100.00;92686.22;2137767;27;20034;-75
2022/10/01 02:44:26;;;;;;;5.72;2.60;;;;;;;2.80;100.00;92694.88;2137371;27;20026;-73
2022/10/01 02:45:31;;;;;;;4.05;2.20;;;;;;;2.78;100.00;92694.50;2122911;27;20035;-74
2022/10/01 02:46:41;;;;;;;2.47;2.28;;;;;;;2.85;100.00;92702.41;2129754;27;20452;-75
2022/10/01 02:47:48;;;;;;;3.60;2.45;;;;;;;2.83;100.00;92696.03;2137802;27;20027;-72
2022/10/01 02:48:50;;;;;;;2.60;2.40;;;;;;;2.74;100.00;92699.03;2129724;27;20371;-76
2022/10/01 02:49:52;;;;;;;2.50;2.30;;;;;;;2.76;100.00;92696.75;2133525;27;20025;-75
2022/10/01 02:51:05;;;;;;;2.28;2.08;;;;;;;2.81;100.00;92685.84;2137909;27;20033;-73
2022/10/01 02:52:26;;;;;;;2.25;2.03;;;;;;;2.97;100.00;92696.75;2137852;27;20103;-75
2022/10/01 02:53:36;;;;;;;2.67;2.17;;;;;;;2.88;100.00;92679.81;2131433;27;20026;-74
2022/10/01 02:55:12;;;;;;;3.75;2.10;;;;;;;2.88;100.00;92679.81;2133652;27;20046;-77
2022/10/01 02:57:21;;;;;;;4.32;2.15;;;;;;;2.85;100.00;92683.19;2098092;28;20414;-77
2022/10/01 02:57:36;;;;;;;4.78;2.15;;;;;;;2.94;100.00;92678.28;2134491;27;20042;-74
2022/10/01 02:58:37;;;;;;;2.15;1.90;;;;;;;2.92;100.00;92683.94;2137717;27;20030;-72
2022/10/01 02:59:38;;;;;;;2.25;2.05;;;;;;;3.09;100.00;92686.97;2131616;27;21073;-74
2022/10/01 03:00:39;;;;;;;2.28;2.08;;;;;;;3.09;100.00;92671.88;2125656;27;20718;-73
2022/10/01 03:01:40;;;;;;;2.50;2.30;;;;;;;3.05;100.00;92671.13;2128178;27;20039;-74
2022/10/01 03:02:41;;;;;;;2.90;2.10;;;;;;;3.03;100.00;92673.41;2128413;27;20071;-76
2022/10/01 03:03:42;;;;;;;3.15;2.20;;;;;;;3.03;100.00;92668.88;2128489;27;20403;-75
2022/10/01 03:04:43;;;;;;;1.67;1.58;;;;;;;3.01;100.00;92670.38;2134996;27;20037;-74
2022/10/01 03:05:44;;;;;;;2.45;2.10;;;;;;;3.28;100.00;92665.44;2137125;27;20122;-71
2022/10/01 03:06:45;;;;;;;5.43;2.15;;;;;;;3.35;100.00;92667.31;2137863;27;20034;-74
2022/10/01 03:07:47;;;;;;;8.25;2.10;;;;;;;3.35;100.00;92672.59;2137380;27;20029;-73
2022/10/01 03:08:49;;;;;;;6.63;2.38;;;;;;;3.36;100.00;92674.09;2129269;27;20032;-76
2022/10/01 03:09:50;;;;;;;3.17;2.10;;;;;;;3.33;100.00;92670.31;2119639;28;20022;-74
2022/10/01 03:10:51;;;;;;;4.78;2.22;;;;;;;3.45;100.00;92669.94;2118748;27;20023;-73
2022/10/01 03:11:51;;;;;;;2.20;2.00;;;;;;;3.37;100.00;92672.97;2137584;27;20029;-75
2022/10/01 03:12:52;;;;;;;3.72;1.90;;;;;;;3.41;100.00;92671.06;2137236;27;20093;-74
2022/10/01 03:13:53;;;;;;;3.08;2.05;;;;;;;3.36;100.00;92671.47;2128087;27;20236;-73
2022/10/01 03:14:55;;;;;;;3.13;2.10;;;;;;;3.36;100.00;92674.09;2119779;27;20077;-73
2022/10/01 03:15:56;;;;;;;2.65;2.00;;;;;;;3.37;100.00;92672.97;2124969;27;20043;-73
2022/10/01 03:16:57;;;;;;;1.98;1.77;;;;;;;3.43;100.00;92674.84;2129107;27;20042;-73
2022/10/01 03:17:57;;;;;;;2.10;1.90;;;;;;;3.54;100.00;92672.91;2128909;27;20030;-73
2022/10/01 03:19:00;;;;;;;2.08;1.88;;;;;;;3.46;100.00;92681.25;2129296;27;20361;-73
2022/10/01 03:20:04;;;;;;;2.65;1.70;;;;;;;3.44;100.00;92686.16;2128378;27;20039;-73
2022/10/01 03:21:07;;;;;;;2.60;1.83;;;;;;;3.48;100.00;92681.63;2128662;27;20030;-75
2022/10/01 03:22:11;;;;;;;1.77;1.67;;;;;;;3.39;100.00;92682.03;2127529;27;20031;-73
2022/10/01 03:23:12;;;;;;;2.00;1.85;;;;;;;3.39;100.00;92689.19;2128866;27;20023;-74
2022/10/01 03:24:13;;;;;;;1.70;1.60;;;;;;;3.42;100.00;92680.50;2128213;27;20026;-73
2022/10/01 03:25:14;;;;;;;2.05;1.65;;;;;;;3.42;100.00;92675.22;2127666;27;20022;-73
2022/10/01 03:26:15;;;;;;;2.25;1.63;;;;;;;3.35;100.00;92688.44;2128430;27;20023;-73
2022/10/01 03:27:17;;;;;;;1.75;1.65;;;;;;;3.36;100.00;92695.97;2117774;27;20031;-74
2022/10/01 03:28:18;;;;;;;2.63;1.73;;;;;;;3.40;100.00;92699.38;2115112;27;20042;-75
2022/10/01 03:29:19;;;;;;;3.35;1.50;;;;;;;3.59;100.00;92698.19;2123221;27;20027;-73
2022/10/01 03:30:21;;;;;;;1.75;1.65;;;;;;;3.53;100.00;92699.72;2122777;27;20034;-74
2022/10/01 03:31:21;;;;;;;2.28;2.08;;;;;;;3.42;100.00;92691.06;2122730;27;20027;-74
2022/10/01 03:32:22;;;;;;;2.65;1.55;;;;;;;3.36;100.00;92688.06;2119663;27;20046;-74
2022/10/01 03:33:23;;;;;;;1.73;1.60;;;;;;;3.39;100.00;92691.84;2123148;27;20034;-75
2022/10/01 03:34:24;;;;;;;2.58;1.85;;;;;;;3.42;100.00;92693.69;2123228;27;20031;-75
2022/10/01 03:35:25;;;;;;;3.78;1.55;;;;;;;3.36;100.00;92695.97;2123017;27;20035;-74
2022/10/01 03:36:26;;;;;;;1.80;1.70;;;;;;;3.32;100.00;92692.59;2122999;27;20118;-74
2022/10/01 03:37:27;;;;;;;1.83;1.73;;;;;;;3.45;100.00;92695.59;2121587;27;20023;-74
2022/10/01 03:38:29;;;;;;;1.77;1.67;;;;;;;3.63;100.00;92698.19;2122603;27;20102;-74
2022/10/01 03:39:30;;;;;;;3.33;1.60;;;;;;;3.46;100.00;92694.44;2122823;27;20023;-74
2022/10/01 03:40:33;;;;;;;2.30;1.70;;;;;;;3.38;100.00;92692.94;2123016;27;20083;-74
2022/10/01 03:41:33;;;;;;;5.50;1.60;;;;;;;3.45;100.00;92692.94;2123067;27;20377;-74
2022/10/01 03:42:34;;;;;;;1.50;1.40;;;;;;;3.37;100.00;92691.44;2118845;27;20038;-74
2022/10/01 03:43:35;;;;;;;2.50;1.50;;;;;;;3.40;100.00;92682.78;2122990;27;20349;-74
2022/10/01 03:44:36;;;;;;;1.92;1.38;;;;;;;3.42;100.00;92683.13;2117487;27;20465;-74
2022/10/01 03:45:38;;;;;;;1.65;1.55;;;;;;;3.39;100.00;92678.63;2120018;27;20031;-74
2022/10/01 03:46:39;;;;;;;1.90;1.70;;;;;;;3.51;100.00;92676.34;2122370;27;20601;-73
2022/10/01 03:47:40;;;;;;;1.60;1.50;;;;;;;3.58;100.00;92682.72;2119048;27;20127;-74
2022/10/01 03:48:41;;;;;;;33.58;2.90;;;;;;;3.56;100.00;92683.13;2122544;27;20024;-74
2022/10/01 03:49:42;;;;;;;46.10;3.45;;;;;;;3.56;100.00;92677.84;2122732;27;20038;-74
2022/10/01 03:50:50;;;;;;;67.32;4.88;;;;;;;3.58;100.00;92669.53;2122674;27;20030;-73
2022/10/01 03:51:51;;;;;;;51.95;4.50;;;;;;;3.57;100.00;92675.94;2115820;27;20027;-73
2022/10/01 03:52:52;;;;;;;34.08;3.00;;;;;;;3.61;100.00;92671.41;2120736;27;20027;-74
2022/10/01 03:53:55;;;;;;;12.10;2.05;;;;;;;3.63;100.00;92669.13;2119564;27;20038;-73
2022/10/01 03:54:56;;;;;;;11.77;2.00;;;;;;;3.64;100.00;92676.66;2122458;27;20386;-74
2022/10/01 03:55:58;;;;;;;15.85;2.60;;;;;;;3.66;100.00;92681.59;2122895;27;20042;-74
2022/10/01 03:56:59;;;;;;;11.98;1.83;;;;;;;3.74;100.00;92683.06;2117159;27;20019;-75
2022/10/01 03:58:01;;;;;;;12.70;1.90;;;;;;;3.76;100.00;92676.25;2117967;27;20027;-75
2022/10/01 03:59:02;;;;;;;9.70;1.67;;;;;;;3.71;100.00;92678.53;2122417;27;20039;-74
2022/10/01 04:00:03;;;;;;;12.88;1.90;;;;;;;3.72;100.00;92678.16;2122451;27;20110;-75
2022/10/01 04:01:04;;;;;;;23.35;2.25;;;;;;;3.70;100.00;92677.78;2121837;27;20027;-73
2022/10/01 04:02:06;;;;;;;17.15;2.47;;;;;;;3.70;100.00;92669.13;2122141;27;20035;-75
2022/10/01 04:03:07;;;;;;;6.95;1.88;;;;;;;3.67;100.00;92672.50;2119156;27;20365;-74
2022/10/01 04:04:08;;;;;;;7.22;1.73;;;;;;;3.75;100.00;92669.47;2122963;27;20050;-74
2022/10/01 04:05:09;;;;;;;2.15;1.80;;;;;;;3.95;100.00;92669.78;2122831;27;20709;-74
2022/10/01 04:06:11;;;;;;;3.67;1.50;;;;;;;3.94;100.00;92672.78;2122780;27;20027;-74
2022/10/01 04:07:11;;;;;;;2.45;1.50;;;;;;;3.90;100.00;92677.34;2123117;27;20019;-73
2022/10/01 04:08:13;;;;;;;5.10;1.77;;;;;;;3.94;100.00;92676.19;2119785;27;20031;-75
2022/10/01 04:09:14;;;;;;;4.55;1.42;;;;;;;3.85;100.00;92675.09;2121871;27;20047;-73
2022/10/01 04:10:15;;;;;;;2.13;1.58;;;;;;;3.83;100.00;92680.78;2122842;27;20027;-75
2022/10/01 04:11:16;;;;;;;3.90;1.50;;;;;;;3.82;100.00;92679.28;2122074;27;20050;-74
2022/10/01 04:12:18;;;;;;;5.93;1.75;;;;;;;3.82;100.00;92678.50;2113799;27;20023;-74
2022/10/01 04:13:19;;;;;;;1.58;1.48;;;;;;;3.91;100.00;92676.22;2116966;27;20462;-74
2022/10/01 04:14:20;;;;;;;1.83;1.58;;;;;;;3.95;100.00;92675.06;2113095;28;20031;-75
2022/10/01 04:15:22;;;;;;;3.13;1.50;;;;;;;4.02;100.00;92668.97;2106146;28;20032;-74
2022/10/01 04:16:23;;;;;;;4.13;1.50;;;;;;;3.95;100.00;92671.66;2121935;27;20022;-75
2022/10/01 04:17:25;;;;;;;1.67;1.55;;;;;;;4.10;100.00;92659.88;2122850;27;20114;-75
2022/10/01 04:18:27;;;;;;;1.50;1.40;;;;;;;4.30;100.00;92670.72;2119792;27;20458;-73
2022/10/01 04:19:27;;;;;;;4.00;2.17;;;;;;;4.22;100.00;92664.00;2122745;27;20338;-74
2022/10/01 04:20:28;;;;;;;3.78;1.63;;;;;;;4.32;100.00;92662.41;2122448;27;20034;-74
2022/10/01 04:21:29;;;;;;;4.75;1.60;;;;;;;4.25;100.00;92663.94;2122429;27;20019;-74
2022/10/01 04:22:37;;;;;;;2.80;2.60;;;;;;;4.27;100.00;92656.41;2122694;27;20031;-76
2022/10/01 04:23:38;;;;;;;2.15;1.95;;;;;;;4.28;100.00;92665.09;2116177;27;20028;-75
2022/10/01 04:24:39;;;;;;;2.55;1.63;;;;;;;4.43;100.00;92668.38;2120414;27;20053;-75
2022/10/01 04:25:40;;;;;;;1.40;1.30;;;;;;;4.41;100.00;92668.78;2122333;27;20362;-74
2022/10/01 04:26:41;;;;;;;2.35;1.65;;;;;;;4.31;100.00;92660.91;2122442;27;20027;-77
2022/10/01 04:27:59;;;;;;;1.35;1.25;;;;;;;4.36;100.00;92658.63;2122759;27;20049;-74
2022/10/01 04:29:00;;;;;;;1.85;1.42;;;;;;;4.28;100.00;92662.44;2121361;27;20039;-74
2022/10/01 04:30:02;;;;;;;2.53;1.40;;;;;;;4.42;100.00;92661.59;2119584;27;20119;-75
2022/10/01 04:32:24;;;;;;;1.50;1.40;;;;;;;4.39;100.00;92663.13;2114372;27;20031;-74
2022/10/01 04:33:24;;;;;;;6.43;1.88;;;;;;;4.47;100.00;92674.41;2121914;27;20028;-73
2022/10/01 04:34:51;;;;;;;8.85;1.63;;;;;;;4.39;100.00;92670.28;2120579;27;20372;-75
2022/10/01 04:35:46;;;;;;;4.78;1.90;;;;;;;4.46;100.00;92671.03;2122289;27;20096;-76
2022/10/01 04:36:47;;;;;;;7.38;1.88;;;;;;;4.44;100.00;92669.91;2113847;27;20403;-74
2022/10/01 04:38:03;;;;;;;7.40;1.80;;;;;;;4.47;100.00;92669.88;2122591;27;20046;-74
2022/10/01 04:39:04;;;;;;;3.80;1.90;;;;;;;4.42;100.00;92670.28;2121791;27;20039;-74
2022/10/01 04:40:06;;;;;;;4.50;2.00;;;;;;;4.42;100.00;92667.63;2118067;27;20031;-74
2022/10/01 04:41:08;;;;;;;2.50;1.95;;;;;;;4.39;100.00;92663.13;2122696;27;20027;-75
2022/10/01 04:42:09;;;;;;;2.35;1.90;;;;;;;4.48;100.00;92662.72;2122610;27;20796;-75
2022/10/01 04:43:12;;;;;;;2.70;1.85;;;;;;;4.46;100.00;92659.69;2121401;27;20114;-74
2022/10/01 04:44:13;;;;;;;5.70;1.98;;;;;;;4.45;100.00;92666.88;2121857;27;20499;-74
2022/10/01 04:45:14;;;;;;;2.50;1.95;;;;;;;4.48;100.00;92666.09;2111145;27;20062;-74
2022/10/01 04:46:15;;;;;;;2.88;1.85;;;;;;;4.54;100.00;92671.72;2121897;27;20114;-76
2022/10/01 04:47:16;;;;;;;3.20;2.03;;;;;;;4.48;100.00;92676.69;2122534;27;20057;-74
2022/10/01 04:48:17;;;;;;;4.00;2.13;;;;;;;4.45;100.00;92671.41;2122834;27;20035;-74
2022/10/01 04:49:18;;;;;;;2.20;1.70;;;;;;;4.61;100.00;92676.22;2113868;27;20036;-74
2022/10/01 04:50:19;;;;;;;1.60;1.35;;;;;;;4.82;100.00;92673.41;2121075;27;20019;-73
2022/10/01 04:51:20;;;;;;;2.53;1.73;;;;;;;5.28;100.00;92669.66;2118789;27;20045;-72
2022/10/01 04:52:21;;;;;;;3.50;1.67;;;;;;;5.21;100.00;92672.38;2122472;27;20525;-73
2022/10/01 04:53:22;;;;;;;2.28;1.67;;;;;;;5.23;100.00;92670.09;2122499;27;20019;-74
2022/10/01 04:54:23;;;;;;;4.75;1.80;;;;;;;5.31;100.00;92668.84;2118851;27;20019;-74
2022/10/01 04:55:24;;;;;;;4.30;1.60;;;;;;;5.32;100.00;92667.72;2121775;27;20571;-74
2022/10/01 04:56:26;;;;;;;1.80;1.30;;;;;;;5.29;100.00;92663.22;2113334;27;20109;-73
2022/10/01 04:57:28;;;;;;;3.45;1.70;;;;;;;5.54;100.00;92669.03;2122187;27;20059;-73
2022/10/01 04:58:30;;;;;;;3.53;1.50;;;;;;;5.62;100.00;92667.06;2122450;27;20147;-74
2022/10/01 04:59:31;;;;;;;3.22;1.42;;;;;;;5.49;100.00;92669.47;2122437;27;20057;-74
2022/10/01 05:00:32;;;;;;;1.65;1.55;;;;;;;5.36;100.00;92663.16;2122321;27;20100;-72
2022/10/01 05:01:33;;;;;;;2.28;1.70;;;;;;;5.45;100.00;92666.09;2119097;27;20056;-73
2022/10/01 05:02:35;;;;;;;3.08;1.75;;;;;;;5.45;100.00;92660.78;2121229;27;20031;-73
2022/10/01 05:03:35;;;;;;;2.55;1.42;;;;;;;5.54;100.00;92666.38;2122111;27;20030;-74
2022/10/01 05:04:36;;;;;;;2.10;1.30;;;;;;;5.51;100.00;92669.06;2122423;27;20026;-74
2022/10/01 05:05:37;;;;;;;1.73;1.50;;;;;;;5.87;100.00;92653.50;2122390;27;20487;-73
2022/10/01 05:06:40;;;;;;;3.58;1.30;;;;;;;6.05;100.00;92659.38;2117637;27;20043;-75
2022/10/01 05:07:41;;;;;;;1.95;1.50;;;;;;;5.96;100.00;92650.41;2122044;27;20035;-74